Time;durP1;ratioP1;P1;durP2;ratioP2;P2;SDS_P1;SDS_P2;PMS_P1;PMS_P2;Temp;Humidity;BMP_temperature;BMP_pressure;BME280_temperature;BME280_humidity;BME280_pressure;Samples;Min_cycle;Max_cycle;Signal;HPM_P1;HPM_P2
2021/05/27 00:02:09;;;;;;;14.98;4.90;;;10.10;99.90;;;;;;5054256;28;20056;-71
2021/05/27 00:04:35;;;;;;;14.35;5.18;;;10.10;99.90;;;;;;5054486;28;20048;-71
2021/05/27 00:07:01;;;;;;;13.70;5.63;;;10.20;99.90;;;;;;5054163;28;20482;-71
2021/05/27 00:09:28;;;;;;;12.98;5.50;;;10.10;99.90;;;;;;5053666;28;20040;-71
2021/05/27 00:11:54;;;;;;;15.52;6.00;;;10.20;99.90;;;;;;5053905;28;20041;-71
2021/05/27 00:14:21;;;;;;;13.00;5.45;;;10.20;99.90;;;;;;5054131;28;20132;-71
2021/05/27 00:16:47;;;;;;;17.35;5.32;;;10.20;99.90;;;;;;5053877;28;20068;-71
2021/05/27 00:19:13;;;;;;;11.93;5.40;;;10.10;99.90;;;;;;5053649;28;20041;-71
2021/05/27 00:21:39;;;;;;;16.92;5.70;;;10.20;99.90;;;;;;5053681;28;20086;-71
2021/05/27 00:24:06;;;;;;;15.60;5.80;;;10.10;99.90;;;;;;5053435;28;20068;-71
2021/05/27 00:26:31;;;;;;;14.57;5.90;;;10.10;99.90;;;;;;5053950;28;20059;-71
2021/05/27 00:28:57;;;;;;;11.63;4.93;;;10.10;99.90;;;;;;5053542;28;20492;-71
2021/05/27 00:31:23;;;;;;;15.95;5.78;;;10.10;99.90;;;;;;5053680;28;20040;-71
2021/05/27 00:33:48;;;;;;;12.85;5.57;;;10.20;99.90;;;;;;5053755;28;20040;-71
2021/05/27 00:36:14;;;;;;;20.20;5.90;;;10.20;99.90;;;;;;5053819;28;20048;-71
2021/05/27 00:38:40;;;;;;;10.35;5.32;;;10.20;99.90;;;;;;5053756;28;20350;-71
2021/05/27 00:41:06;;;;;;;17.58;6.22;;;10.20;99.90;;;;;;5053435;28;20409;-71
2021/05/27 00:43:32;;;;;;;22.50;6.40;;;10.20;99.90;;;;;;5054042;28;20041;-71
2021/05/27 00:45:57;;;;;;;13.90;6.38;;;10.10;99.90;;;;;;5053885;28;20037;-71
2021/05/27 00:51:08;;;;;;;11.32;5.55;;;10.20;99.90;;;;;;5053964;28;20041;-71
2021/05/27 00:53:33;;;;;;;13.20;5.20;;;10.20;99.90;;;;;;5053768;28;20067;-71
2021/05/27 00:56:00;;;;;;;15.65;5.28;;;10.10;99.90;;;;;;5053375;28;20071;-71
2021/05/27 00:58:27;;;;;;;11.30;4.57;;;10.10;99.90;;;;;;5053297;28;20450;-71
2021/05/27 01:00:52;;;;;;;13.55;5.10;;;10.10;99.90;;;;;;5053060;28;20063;-71
2021/05/27 01:03:19;;;;;;;14.63;6.15;;;10.10;99.90;;;;;;5053823;28;20037;-71
2021/05/27 01:05:45;;;;;;;16.30;5.65;;;10.10;99.90;;;;;;5053229;28;20095;-71
2021/05/27 01:08:11;;;;;;;14.70;5.18;;;10.10;99.90;;;;;;5053153;28;20448;-71
2021/05/27 01:10:37;;;;;;;16.38;5.63;;;10.10;99.90;;;;;;5052736;28;20037;-71
2021/05/27 01:13:03;;;;;;;17.90;5.38;;;10.10;99.90;;;;;;5053066;28;20040;-71
2021/05/27 01:15:34;;;;;;;14.75;5.93;;;10.20;99.90;;;;;;5053310;28;20041;-71
2021/05/27 01:18:10;;;;;;;18.38;6.30;;;10.20;99.90;;;;;;5053464;28;20043;-71
2021/05/27 01:20:38;;;;;;;19.27;6.00;;;10.20;99.90;;;;;;5052588;28;20135;-71
2021/05/27 01:23:03;;;;;;;22.45;7.63;;;10.20;99.90;;;;;;5035627;28;20544;-71
2021/05/27 01:25:30;;;;;;;14.80;6.03;;;10.20;99.90;;;;;;5053044;28;20033;-71
2021/05/27 01:27:56;;;;;;;13.85;6.40;;;10.20;99.90;;;;;;5053191;28;20041;-71
2021/05/27 01:30:22;;;;;;;15.90;6.88;;;10.20;99.90;;;;;;5052649;28;20503;-71
2021/05/27 01:32:48;;;;;;;18.48;6.60;;;10.20;99.90;;;;;;5052841;28;20062;-71
2021/05/27 01:35:17;;;;;;;17.02;6.55;;;10.30;99.90;;;;;;5053847;28;20112;-71
2021/05/27 01:37:44;;;;;;;18.40;6.85;;;10.30;99.90;;;;;;5056762;28;20499;-71
2021/05/27 01:40:11;;;;;;;15.40;6.30;;;10.20;99.90;;;;;;5056615;28;20139;-71
2021/05/27 01:42:37;;;;;;;17.23;7.05;;;10.20;99.90;;;;;;5057197;28;20051;-71
2021/05/27 01:45:04;;;;;;;17.15;6.68;;;10.20;99.90;;;;;;5057125;28;20111;-71
2021/05/27 01:47:30;;;;;;;18.70;6.40;;;10.30;99.90;;;;;;5056765;28;20044;-71
2021/05/27 01:49:56;;;;;;;20.08;7.35;;;10.30;99.90;;;;;;5056233;28;20041;-71
2021/05/27 01:52:22;;;;;;;18.15;7.40;;;10.30;99.90;;;;;;5057173;28;20086;-71
2021/05/27 01:54:47;;;;;;;18.92;6.28;;;10.30;99.90;;;;;;5056677;28;20094;-71
2021/05/27 01:57:14;;;;;;;15.48;6.35;;;10.30;99.90;;;;;;5056847;28;20047;-71
2021/05/27 01:59:40;;;;;;;21.60;7.55;;;10.30;99.90;;;;;;5056086;28;20037;-71
2021/05/27 02:02:05;;;;;;;18.20;6.03;;;10.30;99.90;;;;;;5056441;28;20061;-71
2021/05/27 02:04:31;;;;;;;16.08;5.93;;;10.30;99.90;;;;;;5056879;28;20151;-71
2021/05/27 02:06:57;;;;;;;21.52;6.95;;;10.30;99.90;;;;;;5056952;28;20033;-71
2021/05/27 02:09:23;;;;;;;13.43;6.85;;;10.30;99.90;;;;;;5055881;28;20041;-71
2021/05/27 02:11:49;;;;;;;21.80;6.95;;;10.30;99.90;;;;;;5056542;28;20033;-71
2021/05/27 02:14:19;;;;;;;18.38;7.72;;;10.30;99.90;;;;;;5056264;28;20048;-71
2021/05/27 02:16:44;;;;;;;26.27;7.97;;;10.30;99.90;;;;;;5038908;28;20484;-71
2021/05/27 02:19:11;;;;;;;18.02;7.45;;;10.30;99.90;;;;;;5055905;28;20037;-71
2021/05/27 02:21:37;;;;;;;21.27;8.13;;;10.30;99.90;;;;;;5056023;28;20037;-71
2021/05/27 02:24:05;;;;;;;21.27;7.32;;;10.30;99.90;;;;;;5056018;28;20037;-71
2021/05/27 02:26:31;;;;;;;19.23;7.20;;;10.30;99.90;;;;;;5056161;28;20049;-71
2021/05/27 02:29:00;;;;;;;20.88;7.00;;;10.30;99.90;;;;;;5055859;28;20086;-71
2021/05/27 02:31:26;;;;;;;17.45;6.85;;;10.40;99.90;;;;;;5056573;28;20400;-71
2021/05/27 02:33:52;;;;;;;16.25;7.38;;;10.40;99.90;;;;;;5055992;28;20041;-71
2021/05/27 02:36:19;;;;;;;11.23;6.10;;;10.40;99.90;;;;;;5055900;28;20469;-71
2021/05/27 02:38:45;;;;;;;11.68;6.22;;;10.40;99.90;;;;;;5055508;28;20366;-71
2021/05/27 02:41:11;;;;;;;15.82;5.50;;;10.40;99.90;;;;;;5055556;28;20119;-71
2021/05/27 02:43:37;;;;;;;15.93;5.15;;;10.40;99.90;;;;;;5056158;28;20070;-71
2021/05/27 02:46:04;;;;;;;11.52;4.82;;;10.40;99.90;;;;;;5054960;28;20037;-71
2021/05/27 02:48:30;;;;;;;14.02;5.40;;;10.40;99.90;;;;;;5055977;28;20083;-72
2021/05/27 02:50:57;;;;;;;14.05;4.63;;;10.40;99.90;;;;;;5055595;28;20091;-71
2021/05/27 02:53:23;;;;;;;13.23;4.53;;;10.30;99.90;;;;;;5055595;28;20060;-71
2021/05/27 02:55:50;;;;;;;14.15;5.18;;;10.30;99.90;;;;;;5055811;28;20048;-71
2021/05/27 02:58:17;;;;;;;11.25;4.05;;;10.40;99.90;;;;;;5055375;28;20041;-71
2021/05/27 03:00:42;;;;;;;11.05;3.88;;;10.40;99.90;;;;;;5055213;28;20478;-71
2021/05/27 03:03:08;;;;;;;14.77;4.15;;;10.40;99.90;;;;;;5055924;28;20045;-71
2021/05/27 03:05:34;;;;;;;11.85;4.00;;;10.30;99.90;;;;;;5055550;28;20095;-71
2021/05/27 03:07:59;;;;;;;14.60;4.40;;;10.30;99.90;;;;;;5055295;28;20033;-71
2021/05/27 03:10:25;;;;;;;9.05;3.65;;;10.30;99.90;;;;;;5054744;28;20512;-71
2021/05/27 03:12:51;;;;;;;16.73;4.50;;;10.30;99.90;;;;;;5055011;28;20048;-71
2021/05/27 03:15:18;;;;;;;12.27;3.88;;;10.30;99.90;;;;;;5055227;28;20045;-71
2021/05/27 03:17:44;;;;;;;12.60;4.25;;;10.30;99.90;;;;;;5055692;28;20041;-71
2021/05/27 03:20:10;;;;;;;10.82;3.53;;;10.30;99.90;;;;;;5054643;28;20127;-71
2021/05/27 03:22:36;;;;;;;6.00;3.53;;;10.20;99.90;;;;;;5054963;28;20442;-71
2021/05/27 03:25:03;;;;;;;10.05;3.83;;;10.20;99.90;;;;;;5054801;28;20037;-71
2021/05/27 03:27:29;;;;;;;8.45;3.40;;;10.30;99.90;;;;;;5054972;28;20037;-71
2021/05/27 03:29:54;;;;;;;14.98;3.75;;;10.30;99.90;;;;;;5054320;28;20179;-71
2021/05/27 03:32:20;;;;;;;9.95;3.72;;;10.20;99.90;;;;;;5055076;28;20036;-71
2021/05/27 03:34:46;;;;;;;7.97;3.65;;;10.30;99.90;;;;;;5054939;28;20048;-71
2021/05/27 03:37:11;;;;;;;13.38;4.22;;;10.20;99.90;;;;;;5054947;28;20052;-71
2021/05/27 03:39:37;;;;;;;8.48;3.88;;;10.30;99.90;;;;;;5054515;28;20039;-71
2021/05/27 03:42:03;;;;;;;10.13;3.88;;;10.30;99.90;;;;;;5054551;28;20403;-71
2021/05/27 03:44:29;;;;;;;9.38;3.97;;;10.30;99.90;;;;;;5055203;28;20417;-71
2021/05/27 03:46:54;;;;;;;11.82;4.10;;;10.30;99.90;;;;;;5054641;28;20037;-71
2021/05/27 03:49:20;;;;;;;10.90;3.92;;;10.30;99.90;;;;;;5054088;28;20129;-71
2021/05/27 03:51:46;;;;;;;7.78;3.35;;;10.30;99.90;;;;;;5054571;28;20064;-71
2021/05/27 03:54:12;;;;;;;10.48;4.50;;;10.30;99.90;;;;;;5054263;28;20033;-71
2021/05/27 03:56:39;;;;;;;6.93;3.30;;;10.30;99.90;;;;;;5054519;28;20120;-71
2021/05/27 04:01:49;;;;;;;15.43;3.70;;;10.30;99.90;;;;;;5054213;28;20122;-71
2021/05/27 04:07:08;;;;;;;7.63;3.17;;;10.30;99.90;;;;;;5054238;28;20069;-71
2021/05/27 04:07:16;;;;;;;8.02;3.70;;;10.30;99.90;;;;;;5054477;28;20045;-71
2021/05/27 04:09:42;;;;;;;8.27;3.70;;;10.30;99.90;;;;;;5053988;28;20044;-71
2021/05/27 04:17:42;;;;;;;10.32;4.47;;;10.20;99.90;;;;;;5053904;28;20136;-71
2021/05/27 04:20:08;;;;;;;20.90;5.30;;;10.30;99.90;;;;;;5053516;28;20041;-71
2021/05/27 04:22:34;;;;;;;9.70;4.30;;;10.30;99.90;;;;;;5053837;28;20048;-71
2021/05/27 04:24:59;;;;;;;9.63;4.63;;;10.30;99.90;;;;;;5053703;28;20037;-71
2021/05/27 04:27:25;;;;;;;13.07;5.07;;;10.30;99.90;;;;;;5054018;28;20036;-71
2021/05/27 04:29:54;;;;;;;8.85;4.00;;;10.30;99.90;;;;;;5053308;28;20408;-71
2021/05/27 04:35:06;;;;;;;10.98;4.15;;;10.30;99.90;;;;;;5053658;28;20044;-71
2021/05/27 04:37:31;;;;;;;10.30;4.07;;;10.30;99.90;;;;;;5053717;28;20036;-71
2021/05/27 04:39:57;;;;;;;11.45;4.43;;;10.30;99.90;;;;;;5053122;28;20044;-71
2021/05/27 04:42:23;;;;;;;10.50;4.93;;;10.30;99.90;;;;;;5053434;28;20047;-71
2021/05/27 04:44:48;;;;;;;12.07;5.10;;;10.30;99.90;;;;;;5054058;28;20075;-71
2021/05/27 04:47:16;;;;;;;9.98;4.80;;;10.30;99.90;;;;;;5053559;28;20037;-71
2021/05/27 04:49:42;;;;;;;11.32;4.40;;;10.30;99.90;;;;;;5053060;28;20121;-71
2021/05/27 04:52:07;;;;;;;10.82;4.60;;;10.30;99.90;;;;;;5053171;28;20061;-71
2021/05/27 04:54:33;;;;;;;9.10;4.95;;;10.30;99.90;;;;;;5053599;28;20127;-71
2021/05/27 04:56:59;;;;;;;12.43;4.80;;;10.30;99.90;;;;;;5053773;28;20119;-71
2021/05/27 04:59:26;;;;;;;12.10;5.68;;;10.30;99.90;;;;;;5053122;28;20052;-71
2021/05/27 05:01:52;;;;;;;13.88;5.05;;;10.30;99.90;;;;;;5053698;28;20120;-71
2021/05/27 05:04:18;;;;;;;11.45;5.32;;;10.30;99.90;;;;;;5053071;28;20178;-71
2021/05/27 05:06:44;;;;;;;10.73;5.18;;;10.30;99.90;;;;;;5053661;28;20483;-71
2021/05/27 05:09:10;;;;;;;12.80;5.63;;;10.20;99.90;;;;;;5052585;28;20435;-71
2021/05/27 05:11:35;;;;;;;11.48;5.00;;;10.20;99.90;;;;;;5053655;28;20033;-71
2021/05/27 05:14:01;;;;;;;12.23;5.05;;;10.20;99.90;;;;;;5053410;28;20457;-71
2021/05/27 05:16:27;;;;;;;13.02;4.63;;;10.20;99.90;;;;;;5053663;28;20426;-71
2021/05/27 05:18:53;;;;;;;10.90;4.70;;;10.20;99.90;;;;;;5052942;28;20033;-71
2021/05/27 05:21:18;;;;;;;11.18;4.82;;;10.20;99.90;;;;;;5053049;28;20087;-71
2021/05/27 05:23:44;;;;;;;9.93;5.28;;;10.20;99.90;;;;;;5053562;28;20052;-71
2021/05/27 05:26:10;;;;;;;9.43;4.50;;;10.20;99.90;;;;;;5053414;28;20076;-71
2021/05/27 05:28:35;;;;;;;13.77;5.15;;;10.20;99.90;;;;;;5052701;28;20029;-71
2021/05/27 05:31:01;;;;;;;8.95;5.10;;;10.20;99.90;;;;;;5053514;28;20126;-71
2021/05/27 05:33:27;;;;;;;9.70;4.95;;;10.20;99.90;;;;;;5052814;28;20388;-71
2021/05/27 05:35:53;;;;;;;11.73;5.40;;;10.20;99.90;;;;;;5053153;28;20128;-71
2021/05/27 05:38:18;;;;;;;14.20;5.82;;;10.10;99.90;;;;;;5053187;28;20118;-71
2021/05/27 05:40:44;;;;;;;13.90;5.60;;;10.10;99.90;;;;;;5052882;28;20087;-71
2021/05/27 05:43:10;;;;;;;16.35;6.20;;;10.10;99.90;;;;;;5053408;28;20037;-71
2021/05/27 05:45:35;;;;;;;18.58;6.57;;;10.10;99.90;;;;;;5052756;28;20485;-71
2021/05/27 05:48:01;;;;;;;15.18;6.18;;;10.10;99.90;;;;;;5052692;28;20162;-71
2021/05/27 05:53:15;;;;;;;17.90;6.53;;;10.20;99.90;;;;;;5052598;28;20396;-70
2021/05/27 05:55:41;;;;;;;13.07;6.95;;;10.20;99.90;;;;;;5052732;28;20039;-70
2021/05/27 05:58:07;;;;;;;14.10;6.93;;;10.10;99.90;;;;;;5052542;28;20037;-71
2021/05/27 06:00:33;;;;;;;12.88;6.43;;;10.10;99.90;;;;;;5052208;28;20045;-71
2021/05/27 06:03:00;;;;;;;15.55;5.90;;;10.10;99.90;;;;;;5052958;28;20053;-71
2021/05/27 06:05:26;;;;;;;15.52;6.47;;;10.10;99.90;;;;;;5052943;28;20036;-71
2021/05/27 06:07:53;;;;;;;14.88;6.70;;;10.20;99.90;;;;;;5053002;28;20044;-71
2021/05/27 06:10:19;;;;;;;14.20;6.70;;;10.10;99.90;;;;;;5052236;28;20033;-71
2021/05/27 06:12:49;;;;;;;18.13;7.47;;;10.10;99.90;;;;;;5052799;28;20045;-71
2021/05/27 06:15:19;;;;;;;18.33;6.95;;;10.10;99.90;;;;;;5052327;28;20120;-71
2021/05/27 06:17:45;;;;;;;18.58;7.38;;;10.00;99.90;;;;;;5052948;28;20038;-71
2021/05/27 06:20:12;;;;;;;16.25;7.07;;;10.10;99.90;;;;;;5052131;28;20049;-71
2021/05/27 06:22:38;;;;;;;16.85;6.57;;;10.10;99.90;;;;;;5055013;28;20091;-71
2021/05/27 06:25:04;;;;;;;12.70;5.80;;;10.10;99.90;;;;;;5056029;28;20037;-71
2021/05/27 06:27:30;;;;;;;13.40;6.35;;;10.10;99.90;;;;;;5056657;28;20067;-71
2021/05/27 06:29:55;;;;;;;10.65;6.28;;;10.20;99.90;;;;;;5055543;28;20037;-71
2021/05/27 06:32:21;;;;;;;12.05;6.20;;;10.20;99.90;;;;;;5056214;28;20064;-71
2021/05/27 06:34:48;;;;;;;14.70;7.05;;;10.20;99.90;;;;;;5056065;28;20073;-71
2021/05/27 06:37:14;;;;;;;13.32;5.82;;;10.30;99.90;;;;;;5055706;28;20500;-70
2021/05/27 06:39:40;;;;;;;12.32;6.50;;;10.30;99.90;;;;;;5055476;28;20041;-71
2021/05/27 06:42:06;;;;;;;9.35;5.03;;;10.30;99.90;;;;;;5055610;28;20044;-71
2021/05/27 06:44:31;;;;;;;9.70;5.07;;;10.40;99.90;;;;;;5055638;28;20055;-70
2021/05/27 06:46:57;;;;;;;10.32;5.00;;;10.40;99.90;;;;;;5055660;28;20037;-70
2021/05/27 06:49:23;;;;;;;13.63;5.47;;;10.40;99.90;;;;;;5055233;28;20048;-71
2021/05/27 06:51:49;;;;;;;14.40;5.78;;;10.40;99.90;;;;;;5056126;28;20115;-70
2021/05/27 06:54:14;;;;;;;13.80;5.82;;;10.40;99.90;;;;;;5055243;28;20041;-70
2021/05/27 06:56:40;;;;;;;14.23;5.75;;;10.50;99.90;;;;;;5055434;28;20043;-70
2021/05/27 06:59:06;;;;;;;13.07;6.28;;;10.50;99.90;;;;;;5055044;28;20481;-71
2021/05/27 07:01:32;;;;;;;9.55;5.15;;;10.50;99.90;;;;;;5055496;28;20048;-71
2021/05/27 07:03:57;;;;;;;9.85;5.05;;;10.60;99.90;;;;;;5055408;28;20032;-70
2021/05/27 07:06:23;;;;;;;8.75;4.90;;;10.60;99.90;;;;;;5055381;28;20124;-74
2021/05/27 07:08:49;;;;;;;15.10;5.60;;;10.70;99.90;;;;;;5054859;28;20120;-75
2021/05/27 07:11:14;;;;;;;11.02;4.63;;;10.70;99.90;;;;;;5054741;28;20132;-74
2021/05/27 07:13:40;;;;;;;7.95;4.30;;;10.70;99.90;;;;;;5055257;28;20469;-75
2021/05/27 07:16:06;;;;;;;8.15;4.70;;;10.80;99.90;;;;;;5055106;28;20044;-74
2021/05/27 07:18:31;;;;;;;9.35;4.53;;;10.80;99.90;;;;;;5054897;28;20037;-75
2021/05/27 07:20:57;;;;;;;8.98;4.38;;;10.90;99.90;;;;;;5054803;28;20045;-74
2021/05/27 07:23:23;;;;;;;10.27;4.40;;;10.90;99.90;;;;;;5054937;28;20047;-75
2021/05/27 07:25:48;;;;;;;7.38;3.78;;;11.00;99.90;;;;;;5054923;28;20036;-74
2021/05/27 07:28:15;;;;;;;5.75;4.13;;;11.00;99.90;;;;;;5055319;28;20068;-74
2021/05/27 07:30:41;;;;;;;11.05;3.95;;;11.10;99.90;;;;;;5054465;28;20094;-74
2021/05/27 07:33:06;;;;;;;7.82;3.90;;;11.10;99.90;;;;;;5054694;28;20079;-74
2021/05/27 07:35:33;;;;;;;9.82;3.65;;;11.20;99.90;;;;;;5054862;28;20044;-74
2021/05/27 07:37:59;;;;;;;11.13;4.13;;;11.20;99.90;;;;;;5054907;28;20033;-74
2021/05/27 07:40:27;;;;;;;8.20;3.30;;;11.30;99.90;;;;;;5054381;28;20037;-74
2021/05/27 07:42:53;;;;;;;5.10;3.70;;;11.30;99.90;;;;;;5054599;28;20041;-74
2021/05/27 07:45:18;;;;;;;7.57;3.42;;;11.40;99.90;;;;;;5037045;28;20060;-74
2021/05/27 07:47:46;;;;;;;10.38;3.50;;;11.40;99.90;;;;;;5054898;28;20079;-74
2021/05/27 07:50:14;;;;;;;4.85;2.78;;;11.70;99.90;;;;;;5053924;28;20056;-74
2021/05/27 07:52:39;;;;;;;6.00;2.65;;;11.90;99.90;;;;;;5054944;28;20037;-74
2021/05/27 07:55:06;;;;;;;7.18;3.15;;;12.30;99.90;;;;;;5054340;28;20515;-75
2021/05/27 07:57:32;;;;;;;6.03;3.00;;;12.70;99.90;;;;;;5054530;28;20094;-75
2021/05/27 07:59:58;;;;;;;7.43;2.25;;;13.10;99.90;;;;;;5053955;28;20033;-75
2021/05/27 08:02:24;;;;;;;6.97;1.80;;;13.00;99.90;;;;;;5054658;28;20068;-74
2021/05/27 08:04:50;;;;;;;5.20;2.05;;;13.10;99.90;;;;;;5054339;28;20477;-74
2021/05/27 08:07:15;;;;;;;3.75;2.13;;;13.10;99.90;;;;;;5054458;28;20045;-75
2021/05/27 08:09:41;;;;;;;7.72;2.40;;;13.00;99.90;;;;;;5054116;28;20063;-75
2021/05/27 08:12:08;;;;;;;7.53;2.60;;;12.90;99.90;;;;;;5036866;28;20033;-75
2021/05/27 08:14:35;;;;;;;10.02;2.72;;;12.70;99.90;;;;;;5053932;28;20472;-74
2021/05/27 08:17:00;;;;;;;6.30;2.42;;;12.70;99.90;;;;;;5054088;28;20445;-74
2021/05/27 08:19:26;;;;;;;8.77;2.55;;;12.70;99.90;;;;;;5053584;28;20072;-75
2021/05/27 08:21:52;;;;;;;4.25;2.30;;;12.80;99.90;;;;;;5054329;28;20083;-75
2021/05/27 08:24:18;;;;;;;4.68;2.08;;;12.90;99.90;;;;;;5054119;28;20044;-75
2021/05/27 08:26:44;;;;;;;7.30;2.58;;;12.90;99.90;;;;;;5036223;28;20033;-75
2021/05/27 08:29:10;;;;;;;14.05;2.75;;;12.90;99.90;;;;;;5036105;28;20040;-75
2021/05/27 08:31:40;;;;;;;8.52;2.40;;;12.80;99.90;;;;;;5053587;28;20094;-75
2021/05/27 08:34:10;;;;;;;10.10;2.22;;;13.10;99.90;;;;;;5054151;28;20041;-75
2021/05/27 08:36:36;;;;;;;11.07;2.72;;;13.10;99.90;;;;;;5053474;28;20037;-75
2021/05/27 08:39:04;;;;;;;10.70;2.55;;;13.10;99.90;;;;;;5053236;28;20091;-75
2021/05/27 08:41:30;;;;;;;12.25;3.22;;;13.00;99.90;;;;;;5035816;28;20489;-75
2021/05/27 08:43:56;;;;;;;8.73;2.58;;;13.10;99.90;;;;;;5052960;28;20041;-74
2021/05/27 08:46:23;;;;;;;7.88;3.22;;;13.10;99.90;;;;;;5053491;28;20044;-75
2021/05/27 08:48:49;;;;;;;11.90;2.55;;;13.20;99.90;;;;;;5053538;28;20037;-75
2021/05/27 08:51:16;;;;;;;7.78;2.60;;;13.10;99.90;;;;;;5053316;28;20111;-75
2021/05/27 08:53:42;;;;;;;14.05;2.70;;;13.00;99.90;;;;;;5053441;28;20045;-75
2021/05/27 08:56:08;;;;;;;8.45;2.35;;;12.90;99.90;;;;;;5053384;28;20451;-74
2021/05/27 08:58:33;;;;;;;12.95;2.65;;;12.70;99.90;;;;;;5052630;28;20115;-75
2021/05/27 09:00:59;;;;;;;7.85;3.05;;;12.60;99.90;;;;;;5053071;28;20547;-74
2021/05/27 09:03:58;;;;;;;9.90;3.30;;;12.70;99.90;;;;;;5053838;28;20045;-75
2021/05/27 09:06:25;;;;;;;8.73;3.50;;;12.60;99.90;;;;;;5009370;28;20523;-74
2021/05/27 09:09:07;;;;;;;10.38;3.30;;;12.60;99.90;;;;;;5053267;28;20033;-74
2021/05/27 09:11:38;;;;;;;12.73;3.42;;;12.50;99.90;;;;;;5053046;28;20374;-74
2021/05/27 09:14:04;;;;;;;11.07;3.38;;;12.50;99.90;;;;;;5053421;28;20051;-74
2021/05/27 09:16:30;;;;;;;10.05;2.90;;;12.50;99.90;;;;;;5053057;28;20516;-74
2021/05/27 09:19:11;;;;;;;11.25;3.33;;;12.60;99.90;;;;;;5052703;28;20086;-74
2021/05/27 09:21:40;;;;;;;12.95;3.13;;;12.60;99.90;;;;;;5052946;28;20071;-75
2021/05/27 09:24:07;;;;;;;13.80;3.38;;;12.70;99.90;;;;;;5052845;28;20091;-75
2021/05/27 09:26:48;;;;;;;11.75;3.17;;;12.70;99.90;;;;;;5052935;28;20615;-74
2021/05/27 09:29:14;;;;;;;11.50;4.05;;;12.70;99.90;;;;;;5052634;28;20065;-75
2021/05/27 09:31:59;;;;;;;14.80;3.30;;;12.80;99.90;;;;;;5052623;28;20080;-74
2021/05/27 09:34:47;;;;;;;12.60;4.13;;;12.90;99.90;;;;;;5053026;28;20041;-74
2021/05/27 09:37:26;;;;;;;13.00;3.15;;;13.00;99.90;;;;;;5053125;28;20041;-74
2021/05/27 09:39:53;;;;;;;10.13;3.45;;;13.00;99.40;;;;;;5052928;28;20032;-74
2021/05/27 09:42:19;;;;;;;7.38;3.08;;;12.80;99.70;;;;;;5052891;28;20033;-74
2021/05/27 09:44:45;;;;;;;10.18;3.10;;;12.70;99.90;;;;;;5053235;28;20140;-74
2021/05/27 09:47:11;;;;;;;7.22;2.70;;;12.70;99.90;;;;;;5053388;28;20063;-74
2021/05/27 09:49:56;;;;;;;9.55;2.63;;;12.80;99.90;;;;;;5052384;28;20079;-74
2021/05/27 09:52:24;;;;;;;6.60;3.10;;;12.80;99.40;;;;;;5053313;28;20119;-74
2021/05/27 09:54:58;;;;;;;12.40;3.33;;;12.70;99.90;;;;;;5053366;28;20408;-74
2021/05/27 09:57:27;;;;;;;14.25;2.90;;;12.50;99.70;;;;;;5055614;28;20044;-74
2021/05/27 09:59:54;;;;;;;12.98;3.42;;;12.40;99.90;;;;;;5048469;28;20358;-74
2021/05/27 10:02:22;;;;;;;9.25;3.33;;;12.20;99.80;;;;;;5036548;28;20477;-74
2021/05/27 10:04:57;;;;;;;11.27;4.07;;;12.20;99.90;;;;;;5036763;28;20041;-74
2021/05/27 10:07:33;;;;;;;8.80;3.58;;;12.40;99.90;;;;;;5037069;28;20048;-74
2021/05/27 10:09:59;;;;;;;10.77;3.13;;;12.40;99.90;;;;;;5036127;28;20064;-75
2021/05/27 10:12:25;;;;;;;7.45;2.55;;;12.50;99.80;;;;;;5036282;28;20060;-75
2021/05/27 10:14:52;;;;;;;7.55;2.88;;;12.50;99.70;;;;;;5019198;28;20466;-74
2021/05/27 10:17:18;;;;;;;13.25;3.33;;;12.60;99.90;;;;;;5036405;28;20095;-74
2021/05/27 10:19:44;;;;;;;7.53;2.72;;;12.70;99.90;;;;;;5018079;28;20119;-74
2021/05/27 10:22:10;;;;;;;9.18;2.90;;;13.00;99.90;;;;;;5036857;28;20037;-74
2021/05/27 10:24:36;;;;;;;4.82;1.90;;;13.10;98.80;;;;;;5036832;28;20033;-74
2021/05/27 10:27:01;;;;;;;8.13;1.88;;;13.40;98.80;;;;;;5036612;28;20079;-74
2021/05/27 10:29:27;;;;;;;9.05;2.00;;;13.20;97.70;;;;;;5035830;28;20361;-74
2021/05/27 10:31:54;;;;;;;5.25;1.95;;;13.00;97.30;;;;;;5036336;28;20405;-74
2021/05/27 10:34:46;;;;;;;5.60;2.30;;;13.10;97.90;;;;;;5036413;28;20037;-74
2021/05/27 10:37:14;;;;;;;10.75;2.33;;;13.10;97.30;;;;;;5035945;28;20065;-74
2021/05/27 10:39:40;;;;;;;15.25;2.80;;;13.00;98.10;;;;;;5035422;28;20441;-74
2021/05/27 10:42:07;;;;;;;8.70;2.03;;;12.90;98.20;;;;;;5035842;28;20037;-73
2021/05/27 10:44:33;;;;;;;7.25;2.17;;;12.50;98.80;;;;;;5036007;28;20049;-74
2021/05/27 10:46:58;;;;;;;11.10;2.65;;;12.40;99.80;;;;;;5036025;28;20473;-75
2021/05/27 10:49:42;;;;;;;12.10;2.97;;;12.30;99.90;;;;;;5017884;28;20048;-75
2021/05/27 10:52:27;;;;;;;16.73;3.75;;;12.30;99.90;;;;;;5035612;28;20418;-75
2021/05/27 10:54:53;;;;;;;12.98;3.78;;;12.40;99.90;;;;;;5035610;28;20037;-75
2021/05/27 10:57:40;;;;;;;17.08;3.20;;;12.60;99.90;;;;;;5035043;28;20049;-72
2021/05/27 11:00:29;;;;;;;14.32;3.33;;;13.00;99.90;;;;;;5017363;28;20478;-73
2021/05/27 11:02:55;;;;;;;7.35;2.80;;;13.10;99.90;;;;;;5035896;28;20132;-73
2021/05/27 11:05:22;;;;;;;7.97;2.60;;;13.20;99.90;;;;;;5035685;28;20068;-73
2021/05/27 11:08:17;;;;;;;9.40;3.08;;;13.10;99.90;;;;;;5035455;28;20076;-73
2021/05/27 11:10:43;;;;;;;10.90;2.95;;;12.80;99.50;;;;;;5032680;28;20081;-73
2021/05/27 11:13:09;;;;;;;12.48;2.85;;;12.70;99.90;;;;;;5017689;28;20512;-72
2021/05/27 11:15:34;;;;;;;15.38;3.40;;;12.50;99.90;;;;;;5035468;28;20041;-72
2021/05/27 11:18:07;;;;;;;12.32;3.33;;;12.30;99.90;;;;;;5035088;28;20037;-72
2021/05/27 11:20:34;;;;;;;13.30;4.53;;;12.50;99.90;;;;;;5034751;28;20042;-73
2021/05/27 11:23:16;;;;;;;13.52;3.45;;;12.60;99.90;;;;;;5035749;28;20042;-72
2021/05/27 11:25:41;;;;;;;15.82;4.22;;;12.70;99.90;;;;;;5035307;28;20115;-73
2021/05/27 11:28:11;;;;;;;8.77;3.17;;;12.80;99.90;;;;;;5034954;28;20041;-73
2021/05/27 11:30:40;;;;;;;13.57;3.38;;;13.10;99.90;;;;;;5034741;28;20116;-73
2021/05/27 11:33:18;;;;;;;9.85;2.75;;;13.00;99.90;;;;;;5035377;28;20103;-73
2021/05/27 11:35:46;;;;;;;15.07;3.55;;;13.30;99.90;;;;;;5034845;28;20064;-73
2021/05/27 11:38:20;;;;;;;11.75;3.20;;;13.30;99.90;;;;;;5034819;28;20045;-73
2021/05/27 11:40:47;;;;;;;13.25;2.85;;;13.40;99.90;;;;;;5034739;28;20037;-73
2021/05/27 11:43:15;;;;;;;12.77;3.03;;;13.40;99.30;;;;;;5035228;28;20120;-72
2021/05/27 11:45:47;;;;;;;10.00;3.22;;;13.30;99.00;;;;;;5017119;28;20045;-72
2021/05/27 11:51:14;;;;;;;10.20;2.72;;;13.60;98.80;;;;;;5034561;28;20405;-75
2021/05/27 11:53:50;;;;;;;10.13;3.13;;;13.60;98.80;;;;;;5034338;28;20037;-75
2021/05/27 11:56:37;;;;;;;6.78;2.15;;;13.40;98.00;;;;;;5034445;28;20509;-75
2021/05/27 11:59:09;;;;;;;9.82;2.50;;;13.20;97.60;;;;;;5016681;28;20040;-75
2021/05/27 12:01:36;;;;;;;14.98;4.18;;;13.10;98.40;;;;;;5034981;28;20041;-75
2021/05/27 12:04:06;;;;;;;12.40;3.00;;;13.00;98.40;;;;;;5034499;28;20041;-75
2021/05/27 12:06:43;;;;;;;12.68;2.40;;;13.00;98.40;;;;;;5034380;28;20042;-75
2021/05/27 12:09:12;;;;;;;8.45;2.03;;;12.90;96.60;;;;;;5034074;28;20041;-75
2021/05/27 12:11:38;;;;;;;7.05;2.10;;;12.90;96.90;;;;;;5033995;28;20112;-75
2021/05/27 12:14:04;;;;;;;7.63;1.75;;;13.00;96.60;;;;;;5033271;28;20057;-76
2021/05/27 12:16:39;;;;;;;4.43;1.58;;;13.30;97.30;;;;;;5034082;28;20553;-75
2021/05/27 12:19:07;;;;;;;7.38;2.00;;;13.70;96.80;;;;;;5033285;28;20037;-75
2021/05/27 12:21:34;;;;;;;7.30;2.45;;;13.60;96.20;;;;;;5033820;28;20120;-75
2021/05/27 12:24:00;;;;;;;7.47;2.15;;;13.50;96.20;;;;;;5033876;28;20047;-74
2021/05/27 12:26:27;;;;;;;7.93;1.92;;;13.30;95.80;;;;;;5033905;28;20079;-75
2021/05/27 12:28:55;;;;;;;12.15;2.10;;;13.30;96.20;;;;;;5033586;28;20485;-75
2021/05/27 12:31:22;;;;;;;15.63;4.05;;;13.20;95.50;;;;;;5033712;28;20501;-75
2021/05/27 12:33:49;;;;;;;8.43;2.78;;;13.20;95.90;;;;;;5034422;28;20432;-75
2021/05/27 12:36:15;;;;;;;7.45;2.00;;;13.10;96.20;;;;;;5033785;28;20076;-75
2021/05/27 12:38:49;;;;;;;10.40;2.97;;;13.00;96.00;;;;;;5033455;28;20061;-75
2021/05/27 12:41:17;;;;;;;12.35;2.83;;;13.00;95.90;;;;;;5034014;28;20466;-75
2021/05/27 12:43:54;;;;;;;12.30;2.63;;;12.90;95.90;;;;;;5034126;28;20041;-75
2021/05/27 12:46:33;;;;;;;9.65;2.63;;;12.90;96.20;;;;;;5033555;28;20103;-75
2021/05/27 12:48:59;;;;;;;14.35;3.08;;;13.00;97.50;;;;;;5033599;28;20094;-76
2021/05/27 12:51:27;;;;;;;21.50;3.60;;;13.00;97.80;;;;;;5033622;28;20065;-73
2021/05/27 12:53:58;;;;;;;16.23;3.70;;;13.10;97.70;;;;;;5033718;28;20053;-73
2021/05/27 12:56:28;;;;;;;10.35;2.97;;;13.20;97.70;;;;;;5033781;28;20040;-72
2021/05/27 12:59:06;;;;;;;17.25;3.00;;;13.30;97.60;;;;;;5033157;28;20536;-72
2021/05/27 13:01:39;;;;;;;11.48;3.67;;;13.20;97.40;;;;;;5033439;28;20074;-73
2021/05/27 13:04:09;;;;;;;10.50;3.23;;;13.20;96.90;;;;;;5033422;28;20046;-73